sensor_id;sensor_type;location;lat;lon;timestamp;temperature;humidity
20658;DHT22;10488;50.846;4.078;2022-12-07T00:01:30;5.50;99.90
20658;DHT22;10488;50.846;4.078;2022-12-07T00:03:58;5.40;99.90
20658;DHT22;10488;50.846;4.078;2022-12-07T00:06:31;5.40;99.90
20658;DHT22;10488;50.846;4.078;2022-12-07T00:08:57;5.30;99.90
20658;DHT22;10488;50.846;4.078;2022-12-07T00:11:23;5.40;99.90
20658;DHT22;10488;50.846;4.078;2022-12-07T00:13:57;5.50;99.90
20658;DHT22;10488;50.846;4.078;2022-12-07T00:16:26;5.40;99.90
20658;DHT22;10488;50.846;4.078;2022-12-07T00:18:52;5.30;99.90
20658;DHT22;10488;50.846;4.078;2022-12-07T00:21:24;5.20;99.90
20658;DHT22;10488;50.846;4.078;2022-12-07T00:23:51;5.30;99.90
20658;DHT22;10488;50.846;4.078;2022-12-07T00:28:51;5.30;99.90
20658;DHT22;10488;50.846;4.078;2022-12-07T00:31:18;5.30;99.90
20658;DHT22;10488;50.846;4.078;2022-12-07T00:33:45;5.40;99.90
20658;DHT22;10488;50.846;4.078;2022-12-07T00:36:14;5.40;99.90
20658;DHT22;10488;50.846;4.078;2022-12-07T00:38:40;5.50;99.90
20658;DHT22;10488;50.846;4.078;2022-12-07T00:41:10;5.50;99.90
20658;DHT22;10488;50.846;4.078;2022-12-07T00:43:36;5.40;99.90
20658;DHT22;10488;50.846;4.078;2022-12-07T00:46:03;5.40;99.90
20658;DHT22;10488;50.846;4.078;2022-12-07T00:48:29;5.30;99.90
20658;DHT22;10488;50.846;4.078;2022-12-07T00:50:56;5.20;99.90
20658;DHT22;10488;50.846;4.078;2022-12-07T00:53:21;5.10;99.90
20658;DHT22;10488;50.846;4.078;2022-12-07T00:55:47;5.10;99.90
20658;DHT22;10488;50.846;4.078;2022-12-07T00:58:14;5.10;99.90
20658;DHT22;10488;50.846;4.078;2022-12-07T01:00:41;5.10;99.90
20658;DHT22;10488;50.846;4.078;2022-12-07T01:03:11;5.10;99.90
20658;DHT22;10488;50.846;4.078;2022-12-07T01:05:38;5.10;99.90
20658;DHT22;10488;50.846;4.078;2022-12-07T01:08:05;4.90;99.90
20658;DHT22;10488;50.846;4.078;2022-12-07T01:10:30;5.00;99.90
20658;DHT22;10488;50.846;4.078;2022-12-07T01:12:57;5.10;99.90
20658;DHT22;10488;50.846;4.078;2022-12-07T01:15:24;5.10;99.90
20658;DHT22;10488;50.846;4.078;2022-12-07T01:17:50;5.20;99.90
20658;DHT22;10488;50.846;4.078;2022-12-07T01:20:16;5.20;99.90
20658;DHT22;10488;50.846;4.078;2022-12-07T01:22:43;5.10;99.90
20658;DHT22;10488;50.846;4.078;2022-12-07T01:25:10;5.00;99.90
20658;DHT22;10488;50.846;4.078;2022-12-07T01:27:36;5.00;99.90
20658;DHT22;10488;50.846;4.078;2022-12-07T01:30:04;4.90;99.90
20658;DHT22;10488;50.846;4.078;2022-12-07T01:32:30;4.80;99.90
20658;DHT22;10488;50.846;4.078;2022-12-07T01:34:55;5.00;99.90
20658;DHT22;10488;50.846;4.078;2022-12-07T01:37:21;5.00;99.90
20658;DHT22;10488;50.846;4.078;2022-12-07T01:39:50;5.10;99.90
20658;DHT22;10488;50.846;4.078;2022-12-07T01:42:16;5.10;99.90
20658;DHT22;10488;50.846;4.078;2022-12-07T01:47:53;5.10;99.90
20658;DHT22;10488;50.846;4.078;2022-12-07T01:50:20;5.20;99.90
20658;DHT22;10488;50.846;4.078;2022-12-07T01:52:49;5.30;99.90
20658;DHT22;10488;50.846;4.078;2022-12-07T01:55:16;5.30;99.90
20658;DHT22;10488;50.846;4.078;2022-12-07T01:57:49;5.40;99.90
20658;DHT22;10488;50.846;4.078;2022-12-07T02:00:16;5.30;99.90
20658;DHT22;10488;50.846;4.078;2022-12-07T02:02:57;5.40;99.90
20658;DHT22;10488;50.846;4.078;2022-12-07T02:05:26;5.40;99.90
20658;DHT22;10488;50.846;4.078;2022-12-07T02:07:54;5.20;99.90
20658;DHT22;10488;50.846;4.078;2022-12-07T02:10:26;5.10;99.90
20658;DHT22;10488;50.846;4.078;2022-12-07T02:13:14;5.40;99.90
20658;DHT22;10488;50.846;4.078;2022-12-07T02:16:08;5.20;99.90
20658;DHT22;10488;50.846;4.078;2022-12-07T02:21:53;5.20;99.90
20658;DHT22;10488;50.846;4.078;2022-12-07T02:35:34;5.10;99.90
20658;DHT22;10488;50.846;4.078;2022-12-07T02:38:20;5.10;99.90
20658;DHT22;10488;50.846;4.078;2022-12-07T02:40:57;5.00;99.90
20658;DHT22;10488;50.846;4.078;2022-12-07T02:43:33;5.10;99.90
20658;DHT22;10488;50.846;4.078;2022-12-07T02:46:07;5.20;99.90
20658;DHT22;10488;50.846;4.078;2022-12-07T02:48:34;5.10;99.90
20658;DHT22;10488;50.846;4.078;2022-12-07T02:51:00;5.00;99.90
20658;DHT22;10488;50.846;4.078;2022-12-07T02:53:44;4.90;99.90
20658;DHT22;10488;50.846;4.078;2022-12-07T03:10:15;4.70;99.90
20658;DHT22;10488;50.846;4.078;2022-12-07T03:12:56;4.70;99.90
20658;DHT22;10488;50.846;4.078;2022-12-07T03:18:23;4.70;99.90
20658;DHT22;10488;50.846;4.078;2022-12-07T03:20:53;4.60;99.90
20658;DHT22;10488;50.846;4.078;2022-12-07T03:23:21;4.60;99.90
20658;DHT22;10488;50.846;4.078;2022-12-07T03:25:51;4.60;99.90
20658;DHT22;10488;50.846;4.078;2022-12-07T03:28:19;4.50;99.90
20658;DHT22;10488;50.846;4.078;2022-12-07T03:33:31;4.50;99.90
20658;DHT22;10488;50.846;4.078;2022-12-07T03:36:09;4.40;99.90
20658;DHT22;10488;50.846;4.078;2022-12-07T03:41:11;4.30;99.90
20658;DHT22;10488;50.846;4.078;2022-12-07T03:43:37;4.30;99.90
20658;DHT22;10488;50.846;4.078;2022-12-07T03:46:19;4.40;99.90
20658;DHT22;10488;50.846;4.078;2022-12-07T03:49:06;4.30;99.90
20658;DHT22;10488;50.846;4.078;2022-12-07T03:51:45;4.40;99.90
20658;DHT22;10488;50.846;4.078;2022-12-07T03:54:23;4.40;99.90
20658;DHT22;10488;50.846;4.078;2022-12-07T03:56:50;4.40;99.90
20658;DHT22;10488;50.846;4.078;2022-12-07T03:59:17;4.30;99.90
20658;DHT22;10488;50.846;4.078;2022-12-07T04:01:44;4.30;99.90
20658;DHT22;10488;50.846;4.078;2022-12-07T04:04:10;4.30;99.90
20658;DHT22;10488;50.846;4.078;2022-12-07T04:06:35;4.20;99.90
20658;DHT22;10488;50.846;4.078;2022-12-07T04:09:01;4.20;99.90
20658;DHT22;10488;50.846;4.078;2022-12-07T04:11:27;4.10;99.90
20658;DHT22;10488;50.846;4.078;2022-12-07T04:13:52;4.10;99.90
20658;DHT22;10488;50.846;4.078;2022-12-07T04:16:38;4.00;99.90
20658;DHT22;10488;50.846;4.078;2022-12-07T04:19:03;4.00;99.90
20658;DHT22;10488;50.846;4.078;2022-12-07T04:21:30;4.00;99.90
20658;DHT22;10488;50.846;4.078;2022-12-07T04:23:55;3.90;99.90
20658;DHT22;10488;50.846;4.078;2022-12-07T04:26:21;4.00;99.90
20658;DHT22;10488;50.846;4.078;2022-12-07T04:28:47;3.90;99.90
20658;DHT22;10488;50.846;4.078;2022-12-07T04:31:12;3.80;99.90
20658;DHT22;10488;50.846;4.078;2022-12-07T04:33:39;3.90;99.90
20658;DHT22;10488;50.846;4.078;2022-12-07T04:36:05;3.80;99.90
20658;DHT22;10488;50.846;4.078;2022-12-07T04:38:31;3.90;99.90
20658;DHT22;10488;50.846;4.078;2022-12-07T04:40:56;3.90;99.90
20658;DHT22;10488;50.846;4.078;2022-12-07T04:43:22;4.00;99.90
20658;DHT22;10488;50.846;4.078;2022-12-07T04:45:48;3.90;99.90
20658;DHT22;10488;50.846;4.078;2022-12-07T04:48:15;3.80;99.90
20658;DHT22;10488;50.846;4.078;2022-12-07T04:50:40;3.90;99.90
20658;DHT22;10488;50.846;4.078;2022-12-07T04:53:06;3.80;99.90
20658;DHT22;10488;50.846;4.078;2022-12-07T04:55:32;3.80;99.90
20658;DHT22;10488;50.846;4.078;2022-12-07T04:57:58;3.70;99.90
20658;DHT22;10488;50.846;4.078;2022-12-07T05:00:24;3.70;99.90
20658;DHT22;10488;50.846;4.078;2022-12-07T05:02:49;3.60;99.90
20658;DHT22;10488;50.846;4.078;2022-12-07T05:05:15;3.60;99.90
20658;DHT22;10488;50.846;4.078;2022-12-07T05:07:40;3.60;99.90
20658;DHT22;10488;50.846;4.078;2022-12-07T05:10:07;3.60;99.90
20658;DHT22;10488;50.846;4.078;2022-12-07T05:12:32;3.70;99.90
20658;DHT22;10488;50.846;4.078;2022-12-07T05:14:58;3.80;99.90
20658;DHT22;10488;50.846;4.078;2022-12-07T05:17:24;3.80;99.90
20658;DHT22;10488;50.846;4.078;2022-12-07T05:19:49;3.80;99.90
20658;DHT22;10488;50.846;4.078;2022-12-07T05:22:15;3.60;99.90
20658;DHT22;10488;50.846;4.078;2022-12-07T05:24:41;3.60;99.90
20658;DHT22;10488;50.846;4.078;2022-12-07T05:27:06;3.60;99.90
20658;DHT22;10488;50.846;4.078;2022-12-07T05:29:32;3.70;99.90
20658;DHT22;10488;50.846;4.078;2022-12-07T05:31:57;3.50;99.90
20658;DHT22;10488;50.846;4.078;2022-12-07T05:34:23;3.70;99.90
20658;DHT22;10488;50.846;4.078;2022-12-07T05:36:49;3.90;99.90
20658;DHT22;10488;50.846;4.078;2022-12-07T05:39:15;4.00;99.90
20658;DHT22;10488;50.846;4.078;2022-12-07T05:41:41;4.00;99.90
20658;DHT22;10488;50.846;4.078;2022-12-07T05:44:25;4.00;99.90
20658;DHT22;10488;50.846;4.078;2022-12-07T05:46:51;3.90;99.90
20658;DHT22;10488;50.846;4.078;2022-12-07T05:49:17;4.00;99.90
20658;DHT22;10488;50.846;4.078;2022-12-07T05:51:43;4.10;99.90
20658;DHT22;10488;50.846;4.078;2022-12-07T05:54:08;4.20;99.90
20658;DHT22;10488;50.846;4.078;2022-12-07T05:56:34;4.30;99.90
20658;DHT22;10488;50.846;4.078;2022-12-07T05:59:00;4.30;99.90
20658;DHT22;10488;50.846;4.078;2022-12-07T06:01:44;4.30;99.90
20658;DHT22;10488;50.846;4.078;2022-12-07T06:04:10;4.40;99.90
20658;DHT22;10488;50.846;4.078;2022-12-07T06:06:35;4.50;99.90
20658;DHT22;10488;50.846;4.078;2022-12-07T06:09:02;4.70;99.90
20658;DHT22;10488;50.846;4.078;2022-12-07T06:11:27;4.60;99.90
20658;DHT22;10488;50.846;4.078;2022-12-07T06:14:12;4.60;99.90
20658;DHT22;10488;50.846;4.078;2022-12-07T06:16:37;4.70;99.90
20658;DHT22;10488;50.846;4.078;2022-12-07T06:19:03;4.70;99.90
20658;DHT22;10488;50.846;4.078;2022-12-07T06:21:29;4.60;99.90
20658;DHT22;10488;50.846;4.078;2022-12-07T06:23:55;4.60;99.90
20658;DHT22;10488;50.846;4.078;2022-12-07T06:26:20;4.50;99.90
20658;DHT22;10488;50.846;4.078;2022-12-07T06:28:46;4.60;99.90
20658;DHT22;10488;50.846;4.078;2022-12-07T06:31:12;4.70;99.90
20658;DHT22;10488;50.846;4.078;2022-12-07T06:33:37;4.60;99.90
20658;DHT22;10488;50.846;4.078;2022-12-07T06:36:03;4.50;99.90
20658;DHT22;10488;50.846;4.078;2022-12-07T06:38:29;4.50;99.90
20658;DHT22;10488;50.846;4.078;2022-12-07T06:40:54;4.50;99.90
20658;DHT22;10488;50.846;4.078;2022-12-07T06:43:20;4.70;99.90
20658;DHT22;10488;50.846;4.078;2022-12-07T06:45:46;4.70;99.90
20658;DHT22;10488;50.846;4.078;2022-12-07T06:48:11;4.60;99.90
20658;DHT22;10488;50.846;4.078;2022-12-07T06:50:37;4.50;99.90
20658;DHT22;10488;50.846;4.078;2022-12-07T06:53:03;4.30;99.90
20658;DHT22;10488;50.846;4.078;2022-12-07T06:55:28;4.30;99.90
20658;DHT22;10488;50.846;4.078;2022-12-07T06:57:54;4.30;99.90
20658;DHT22;10488;50.846;4.078;2022-12-07T07:00:20;4.20;99.90
20658;DHT22;10488;50.846;4.078;2022-12-07T07:02:45;4.20;99.90
20658;DHT22;10488;50.846;4.078;2022-12-07T07:05:11;4.10;99.90
20658;DHT22;10488;50.846;4.078;2022-12-07T07:07:37;4.10;99.90
20658;DHT22;10488;50.846;4.078;2022-12-07T07:10:03;4.20;99.90
20658;DHT22;10488;50.846;4.078;2022-12-07T07:12:28;4.20;99.90
20658;DHT22;10488;50.846;4.078;2022-12-07T07:14:54;4.20;99.90
20658;DHT22;10488;50.846;4.078;2022-12-07T07:17:19;4.30;99.90
20658;DHT22;10488;50.846;4.078;2022-12-07T07:19:45;4.40;99.90
20658;DHT22;10488;50.846;4.078;2022-12-07T07:22:12;4.50;99.90
20658;DHT22;10488;50.846;4.078;2022-12-07T07:24:37;4.40;99.90
20658;DHT22;10488;50.846;4.078;2022-12-07T07:27:03;4.50;99.90
20658;DHT22;10488;50.846;4.078;2022-12-07T07:29:29;4.50;99.90
20658;DHT22;10488;50.846;4.078;2022-12-07T07:31:55;4.60;99.90
20658;DHT22;10488;50.846;4.078;2022-12-07T07:34:21;4.60;99.90
20658;DHT22;10488;50.846;4.078;2022-12-07T07:36:46;4.70;99.90
20658;DHT22;10488;50.846;4.078;2022-12-07T07:39:12;4.90;99.90
20658;DHT22;10488;50.846;4.078;2022-12-07T07:41:39;4.90;99.90
20658;DHT22;10488;50.846;4.078;2022-12-07T07:44:04;4.90;99.90
20658;DHT22;10488;50.846;4.078;2022-12-07T07:46:30;4.90;99.90
20658;DHT22;10488;50.846;4.078;2022-12-07T07:48:58;4.80;99.90
20658;DHT22;10488;50.846;4.078;2022-12-07T07:51:24;4.80;99.90
20658;DHT22;10488;50.846;4.078;2022-12-07T07:53:49;4.80;99.90
20658;DHT22;10488;50.846;4.078;2022-12-07T07:56:15;4.80;99.90
20658;DHT22;10488;50.846;4.078;2022-12-07T07:58:41;4.70;99.90
20658;DHT22;10488;50.846;4.078;2022-12-07T08:01:07;4.80;99.90
20658;DHT22;10488;50.846;4.078;2022-12-07T08:03:33;4.70;99.90
20658;DHT22;10488;50.846;4.078;2022-12-07T08:05:59;4.50;99.90
20658;DHT22;10488;50.846;4.078;2022-12-07T08:08:24;4.50;99.90
20658;DHT22;10488;50.846;4.078;2022-12-07T08:10:50;4.50;99.90
20658;DHT22;10488;50.846;4.078;2022-12-07T08:13:16;4.40;99.90
20658;DHT22;10488;50.846;4.078;2022-12-07T08:15:44;4.60;99.90
20658;DHT22;10488;50.846;4.078;2022-12-07T08:18:11;4.70;99.90
20658;DHT22;10488;50.846;4.078;2022-12-07T08:20:38;4.70;99.90
20658;DHT22;10488;50.846;4.078;2022-12-07T08:23:04;4.80;99.90
20658;DHT22;10488;50.846;4.078;2022-12-07T08:25:30;4.80;99.90
20658;DHT22;10488;50.846;4.078;2022-12-07T08:27:56;4.90;99.90
20658;DHT22;10488;50.846;4.078;2022-12-07T08:30:22;5.00;99.90
20658;DHT22;10488;50.846;4.078;2022-12-07T08:32:48;5.30;99.90
20658;DHT22;10488;50.846;4.078;2022-12-07T08:35:14;5.50;99.90
20658;DHT22;10488;50.846;4.078;2022-12-07T08:37:41;5.60;99.90
20658;DHT22;10488;50.846;4.078;2022-12-07T08:40:08;5.40;99.90
20658;DHT22;10488;50.846;4.078;2022-12-07T08:42:34;5.40;99.90
20658;DHT22;10488;50.846;4.078;2022-12-07T08:45:07;5.60;99.90
20658;DHT22;10488;50.846;4.078;2022-12-07T08:47:40;5.40;99.90
20658;DHT22;10488;50.846;4.078;2022-12-07T08:50:08;5.20;99.90
20658;DHT22;10488;50.846;4.078;2022-12-07T08:52:36;5.20;99.90
20658;DHT22;10488;50.846;4.078;2022-12-07T08:55:03;5.20;99.90
20658;DHT22;10488;50.846;4.078;2022-12-07T08:57:30;5.30;99.90
20658;DHT22;10488;50.846;4.078;2022-12-07T08:59:56;5.50;99.90
20658;DHT22;10488;50.846;4.078;2022-12-07T09:02:22;5.50;99.90
20658;DHT22;10488;50.846;4.078;2022-12-07T09:04:48;5.50;99.90
20658;DHT22;10488;50.846;4.078;2022-12-07T09:07:16;5.40;99.90
20658;DHT22;10488;50.846;4.078;2022-12-07T09:09:41;5.60;99.90
20658;DHT22;10488;50.846;4.078;2022-12-07T09:12:07;5.50;99.90
20658;DHT22;10488;50.846;4.078;2022-12-07T09:14:33;5.80;99.90
20658;DHT22;10488;50.846;4.078;2022-12-07T09:17:11;5.90;99.90
20658;DHT22;10488;50.846;4.078;2022-12-07T09:19:38;5.90;99.90
20658;DHT22;10488;50.846;4.078;2022-12-07T09:22:04;5.80;99.90
20658;DHT22;10488;50.846;4.078;2022-12-07T09:24:31;6.00;99.90
20658;DHT22;10488;50.846;4.078;2022-12-07T09:26:57;6.00;99.90
20658;DHT22;10488;50.846;4.078;2022-12-07T09:29:24;6.00;99.90
20658;DHT22;10488;50.846;4.078;2022-12-07T09:31:49;6.30;99.90
20658;DHT22;10488;50.846;4.078;2022-12-07T09:34:15;6.40;99.90
20658;DHT22;10488;50.846;4.078;2022-12-07T09:36:41;6.30;99.90
20658;DHT22;10488;50.846;4.078;2022-12-07T09:39:08;6.50;99.90
20658;DHT22;10488;50.846;4.078;2022-12-07T09:41:38;6.80;99.90
20658;DHT22;10488;50.846;4.078;2022-12-07T09:44:09;6.90;99.90
20658;DHT22;10488;50.846;4.078;2022-12-07T09:46:41;6.70;99.90
20658;DHT22;10488;50.846;4.078;2022-12-07T09:49:19;6.90;99.90
20658;DHT22;10488;50.846;4.078;2022-12-07T09:51:45;6.90;99.90
20658;DHT22;10488;50.846;4.078;2022-12-07T09:54:14;6.80;99.90
20658;DHT22;10488;50.846;4.078;2022-12-07T09:56:41;7.00;99.90
20658;DHT22;10488;50.846;4.078;2022-12-07T09:59:13;7.00;99.90
20658;DHT22;10488;50.846;4.078;2022-12-07T10:01:42;7.10;99.90
20658;DHT22;10488;50.846;4.078;2022-12-07T10:04:24;6.80;99.90
20658;DHT22;10488;50.846;4.078;2022-12-07T10:06:51;6.80;99.90
20658;DHT22;10488;50.846;4.078;2022-12-07T10:09:19;6.90;99.90
20658;DHT22;10488;50.846;4.078;2022-12-07T10:12:21;7.00;99.90
20658;DHT22;10488;50.846;4.078;2022-12-07T10:15:00;7.20;99.90
20658;DHT22;10488;50.846;4.078;2022-12-07T10:22:59;7.10;99.90
20658;DHT22;10488;50.846;4.078;2022-12-07T10:25:29;7.30;99.90
20658;DHT22;10488;50.846;4.078;2022-12-07T10:28:01;7.20;99.90
20658;DHT22;10488;50.846;4.078;2022-12-07T10:30:27;7.70;99.90
20658;DHT22;10488;50.846;4.078;2022-12-07T10:32:53;8.00;99.90
20658;DHT22;10488;50.846;4.078;2022-12-07T10:35:28;7.80;99.90
20658;DHT22;10488;50.846;4.078;2022-12-07T10:37:57;7.80;99.90
20658;DHT22;10488;50.846;4.078;2022-12-07T10:40:34;8.00;99.90
20658;DHT22;10488;50.846;4.078;2022-12-07T10:54:12;8.20;99.90
20658;DHT22;10488;50.846;4.078;2022-12-07T10:56:57;8.00;99.90
20658;DHT22;10488;50.846;4.078;2022-12-07T11:05:05;7.90;99.90
20658;DHT22;10488;50.846;4.078;2022-12-07T11:08:05;8.00;99.90
20658;DHT22;10488;50.846;4.078;2022-12-07T11:16:33;7.80;99.90
20658;DHT22;10488;50.846;4.078;2022-12-07T11:22:00;7.70;99.90
20658;DHT22;10488;50.846;4.078;2022-12-07T11:24:51;7.50;99.90
20658;DHT22;10488;50.846;4.078;2022-12-07T11:30:23;7.80;99.90
20658;DHT22;10488;50.846;4.078;2022-12-07T11:40:45;7.10;99.90
20658;DHT22;10488;50.846;4.078;2022-12-07T11:43:21;7.30;99.90
20658;DHT22;10488;50.846;4.078;2022-12-07T11:46:02;7.40;99.90
20658;DHT22;10488;50.846;4.078;2022-12-07T11:48:58;7.70;99.90
20658;DHT22;10488;50.846;4.078;2022-12-07T11:51:28;8.20;99.90
20658;DHT22;10488;50.846;4.078;2022-12-07T11:54:18;8.50;99.90
20658;DHT22;10488;50.846;4.078;2022-12-07T11:56:47;8.80;99.90
20658;DHT22;10488;50.846;4.078;2022-12-07T11:59:31;8.30;99.90
20658;DHT22;10488;50.846;4.078;2022-12-07T12:02:14;8.40;99.90
20658;DHT22;10488;50.846;4.078;2022-12-07T12:07:15;8.70;99.90
20658;DHT22;10488;50.846;4.078;2022-12-07T12:09:54;8.50;99.90
20658;DHT22;10488;50.846;4.078;2022-12-07T12:12:40;8.70;99.90
20658;DHT22;10488;50.846;4.078;2022-12-07T12:15:45;8.40;99.90
20658;DHT22;10488;50.846;4.078;2022-12-07T12:21:27;8.20;99.90
20658;DHT22;10488;50.846;4.078;2022-12-07T12:24:04;8.20;99.90
20658;DHT22;10488;50.846;4.078;2022-12-07T12:26:36;8.20;99.90
20658;DHT22;10488;50.846;4.078;2022-12-07T12:29:15;8.30;99.90
20658;DHT22;10488;50.846;4.078;2022-12-07T12:31:47;8.40;99.90
20658;DHT22;10488;50.846;4.078;2022-12-07T12:42:50;8.40;99.90
20658;DHT22;10488;50.846;4.078;2022-12-07T12:45:36;8.10;99.90
20658;DHT22;10488;50.846;4.078;2022-12-07T12:48:04;8.20;99.90
20658;DHT22;10488;50.846;4.078;2022-12-07T12:50:42;8.30;99.90
20658;DHT22;10488;50.846;4.078;2022-12-07T12:53:23;8.40;99.90
20658;DHT22;10488;50.846;4.078;2022-12-07T12:58:41;8.40;99.90
20658;DHT22;10488;50.846;4.078;2022-12-07T13:01:38;8.50;99.90
20658;DHT22;10488;50.846;4.078;2022-12-07T13:04:17;8.70;99.90
20658;DHT22;10488;50.846;4.078;2022-12-07T13:06:47;8.80;99.90
20658;DHT22;10488;50.846;4.078;2022-12-07T13:09:30;8.50;99.90
20658;DHT22;10488;50.846;4.078;2022-12-07T13:12:01;8.70;99.90
20658;DHT22;10488;50.846;4.078;2022-12-07T13:14:55;8.90;99.90
20658;DHT22;10488;50.846;4.078;2022-12-07T13:20:00;9.30;99.90
20658;DHT22;10488;50.846;4.078;2022-12-07T13:24:58;9.00;99.90
20658;DHT22;10488;50.846;4.078;2022-12-07T13:27:25;8.60;99.90
20658;DHT22;10488;50.846;4.078;2022-12-07T13:29:52;8.50;99.90
20658;DHT22;10488;50.846;4.078;2022-12-07T13:32:28;8.60;99.90
20658;DHT22;10488;50.846;4.078;2022-12-07T13:34:54;8.60;99.90
20658;DHT22;10488;50.846;4.078;2022-12-07T13:37:33;8.40;99.90
20658;DHT22;10488;50.846;4.078;2022-12-07T13:40:00;8.30;99.90
20658;DHT22;10488;50.846;4.078;2022-12-07T13:42:32;8.30;99.90
20658;DHT22;10488;50.846;4.078;2022-12-07T13:44:59;8.40;99.90
20658;DHT22;10488;50.846;4.078;2022-12-07T13:49:57;8.60;99.90
20658;DHT22;10488;50.846;4.078;2022-12-07T13:52:28;8.70;99.90
20658;DHT22;10488;50.846;4.078;2022-12-07T13:57:30;8.60;99.90
20658;DHT22;10488;50.846;4.078;2022-12-07T13:59:57;8.60;99.90
20658;DHT22;10488;50.846;4.078;2022-12-07T14:02:31;8.70;99.90
20658;DHT22;10488;50.846;4.078;2022-12-07T14:05:24;8.80;99.90
20658;DHT22;10488;50.846;4.078;2022-12-07T14:07:55;8.90;99.90
20658;DHT22;10488;50.846;4.078;2022-12-07T14:12:50;8.60;99.90
20658;DHT22;10488;50.846;4.078;2022-12-07T14:15:21;8.60;99.90
20658;DHT22;10488;50.846;4.078;2022-12-07T14:17:54;8.60;99.90
20658;DHT22;10488;50.846;4.078;2022-12-07T14:20:31;8.60;99.90
20658;DHT22;10488;50.846;4.078;2022-12-07T14:22:57;8.60;99.90
20658;DHT22;10488;50.846;4.078;2022-12-07T14:25:24;8.70;99.90
20658;DHT22;10488;50.846;4.078;2022-12-07T14:30:23;8.50;99.90
20658;DHT22;10488;50.846;4.078;2022-12-07T14:33:00;8.30;99.90
20658;DHT22;10488;50.846;4.078;2022-12-07T14:35:27;8.40;99.90
20658;DHT22;10488;50.846;4.078;2022-12-07T14:37:53;8.40;99.90
20658;DHT22;10488;50.846;4.078;2022-12-07T14:40:20;8.40;99.90
20658;DHT22;10488;50.846;4.078;2022-12-07T14:42:48;8.40;99.90
20658;DHT22;10488;50.846;4.078;2022-12-07T14:45:18;8.30;99.90
20658;DHT22;10488;50.846;4.078;2022-12-07T14:47:45;8.20;99.90
20658;DHT22;10488;50.846;4.078;2022-12-07T14:50:16;8.30;99.90
20658;DHT22;10488;50.846;4.078;2022-12-07T14:52:55;8.20;99.90
20658;DHT22;10488;50.846;4.078;2022-12-07T14:55:26;8.30;99.90
20658;DHT22;10488;50.846;4.078;2022-12-07T14:57:53;8.30;99.90
20658;DHT22;10488;50.846;4.078;2022-12-07T15:00:20;8.30;99.90
20658;DHT22;10488;50.846;4.078;2022-12-07T15:02:47;8.20;99.90
20658;DHT22;10488;50.846;4.078;2022-12-07T15:05:13;8.10;99.90
20658;DHT22;10488;50.846;4.078;2022-12-07T15:07:39;7.90;99.90
20658;DHT22;10488;50.846;4.078;2022-12-07T15:10:06;7.90;99.90
20658;DHT22;10488;50.846;4.078;2022-12-07T15:12:32;7.90;99.90
20658;DHT22;10488;50.846;4.078;2022-12-07T15:14:57;7.80;99.90
20658;DHT22;10488;50.846;4.078;2022-12-07T15:17:23;7.60;99.90
20658;DHT22;10488;50.846;4.078;2022-12-07T15:19:48;7.20;99.90
20658;DHT22;10488;50.846;4.078;2022-12-07T15:22:14;7.00;99.90
20658;DHT22;10488;50.846;4.078;2022-12-07T15:24:40;7.20;99.90
20658;DHT22;10488;50.846;4.078;2022-12-07T15:27:05;7.00;99.90
20658;DHT22;10488;50.846;4.078;2022-12-07T15:29:31;7.20;99.90
20658;DHT22;10488;50.846;4.078;2022-12-07T15:31:57;7.10;99.90
20658;DHT22;10488;50.846;4.078;2022-12-07T15:34:24;6.70;99.90
20658;DHT22;10488;50.846;4.078;2022-12-07T15:36:50;6.80;99.90
20658;DHT22;10488;50.846;4.078;2022-12-07T15:39:16;6.70;99.90
20658;DHT22;10488;50.846;4.078;2022-12-07T15:41:42;6.60;99.90
20658;DHT22;10488;50.846;4.078;2022-12-07T15:44:11;6.60;99.90
20658;DHT22;10488;50.846;4.078;2022-12-07T15:46:56;6.90;99.90
20658;DHT22;10488;50.846;4.078;2022-12-07T15:49:21;6.90;99.90
20658;DHT22;10488;50.846;4.078;2022-12-07T15:51:47;7.00;99.90
20658;DHT22;10488;50.846;4.078;2022-12-07T15:54:20;7.00;99.90
20658;DHT22;10488;50.846;4.078;2022-12-07T15:56:46;7.10;99.90
20658;DHT22;10488;50.846;4.078;2022-12-07T15:59:12;7.10;99.90
20658;DHT22;10488;50.846;4.078;2022-12-07T16:01:37;7.10;99.90
20658;DHT22;10488;50.846;4.078;2022-12-07T16:04:03;7.10;99.90
20658;DHT22;10488;50.846;4.078;2022-12-07T16:06:29;7.00;99.90
20658;DHT22;10488;50.846;4.078;2022-12-07T16:08:54;6.90;99.90
20658;DHT22;10488;50.846;4.078;2022-12-07T16:11:20;6.90;99.90
20658;DHT22;10488;50.846;4.078;2022-12-07T16:13:46;6.90;99.90
20658;DHT22;10488;50.846;4.078;2022-12-07T16:16:17;6.90;99.90
20658;DHT22;10488;50.846;4.078;2022-12-07T16:18:44;7.00;99.90
20658;DHT22;10488;50.846;4.078;2022-12-07T16:21:10;7.10;99.90
20658;DHT22;10488;50.846;4.078;2022-12-07T16:23:36;7.10;99.90
20658;DHT22;10488;50.846;4.078;2022-12-07T16:26:19;7.00;99.90
20658;DHT22;10488;50.846;4.078;2022-12-07T16:28:49;7.10;99.90
20658;DHT22;10488;50.846;4.078;2022-12-07T16:31:17;7.00;99.90
20658;DHT22;10488;50.846;4.078;2022-12-07T16:33:44;7.00;99.90
20658;DHT22;10488;50.846;4.078;2022-12-07T16:36:11;6.80;99.90
20658;DHT22;10488;50.846;4.078;2022-12-07T16:38:37;6.50;99.90
20658;DHT22;10488;50.846;4.078;2022-12-07T16:41:05;6.40;99.90
20658;DHT22;10488;50.846;4.078;2022-12-07T16:43:30;6.40;99.90
20658;DHT22;10488;50.846;4.078;2022-12-07T16:45:56;6.50;99.90
20658;DHT22;10488;50.846;4.078;2022-12-07T16:48:22;6.40;99.90
20658;DHT22;10488;50.846;4.078;2022-12-07T16:50:48;6.30;99.90
20658;DHT22;10488;50.846;4.078;2022-12-07T16:53:14;6.40;99.90
20658;DHT22;10488;50.846;4.078;2022-12-07T16:55:42;6.40;99.90
20658;DHT22;10488;50.846;4.078;2022-12-07T16:58:09;6.30;99.90
20658;DHT22;10488;50.846;4.078;2022-12-07T17:00:36;6.20;99.90
20658;DHT22;10488;50.846;4.078;2022-12-07T17:03:03;6.10;99.90
20658;DHT22;10488;50.846;4.078;2022-12-07T17:05:29;6.10;99.90
20658;DHT22;10488;50.846;4.078;2022-12-07T17:07:55;6.10;99.90
20658;DHT22;10488;50.846;4.078;2022-12-07T17:10:21;6.10;99.90
20658;DHT22;10488;50.846;4.078;2022-12-07T17:12:47;6.20;99.90
20658;DHT22;10488;50.846;4.078;2022-12-07T17:15:13;6.10;99.90
20658;DHT22;10488;50.846;4.078;2022-12-07T17:17:46;6.10;99.90
20658;DHT22;10488;50.846;4.078;2022-12-07T17:20:16;6.20;99.90
20658;DHT22;10488;50.846;4.078;2022-12-07T17:22:42;6.20;99.90
20658;DHT22;10488;50.846;4.078;2022-12-07T17:25:08;6.30;99.90
20658;DHT22;10488;50.846;4.078;2022-12-07T17:27:35;6.40;99.90
20658;DHT22;10488;50.846;4.078;2022-12-07T17:30:05;6.40;99.90
20658;DHT22;10488;50.846;4.078;2022-12-07T17:32:31;6.40;99.90
20658;DHT22;10488;50.846;4.078;2022-12-07T17:34:57;6.30;99.90
20658;DHT22;10488;50.846;4.078;2022-12-07T17:37:23;6.40;99.90
20658;DHT22;10488;50.846;4.078;2022-12-07T17:39:48;6.30;99.90
20658;DHT22;10488;50.846;4.078;2022-12-07T17:42:14;6.50;99.90
20658;DHT22;10488;50.846;4.078;2022-12-07T17:44:58;6.60;99.90
20658;DHT22;10488;50.846;4.078;2022-12-07T17:47:24;6.60;99.90
20658;DHT22;10488;50.846;4.078;2022-12-07T17:49:50;6.70;99.90
20658;DHT22;10488;50.846;4.078;2022-12-07T17:52:16;6.80;99.90
20658;DHT22;10488;50.846;4.078;2022-12-07T17:55:00;6.60;99.90